Aérodrome :
LOGIN :

S'inscrire | Disclaimer

   EN    FR    IT 

 










Légende :    VFR   VFR Marginal   IFR   IFR Intensif   IFR Très Intensif
Visi : 
Plafond : 
>= 8 km
>= 3000ft
5 à 8 km
1000 à 3000 ft
1500m à 5 km
500 à 1000 ft
800 à 1500m
200 à 500 ft
< 800m
< 200 ft
Symboles :   Orages  Brouillard  Fortes neiges  Fortes précipitations  Vent > 20 kt
SIGMETs :   Divers  Orages  Givrage  Turbulence  Onde Orograph.  Cendres Volcan.







- Altitude de l'aérodrome : 2945 ft
- Code IATA : RGS


LEBG - Burgos

DERNIER METAR :
  • 130500Z AUTO 04009KT 9999 BKN005/// OVC014/// 08/08 Q1024

METARs EXPIRÉS :
  • 130430Z AUTO 05009KT 8000 BKN005/// 08/08 Q1024
  • 130400Z AUTO 04007KT 5000 BR BKN004/// 08/08 Q1024
  • 130330Z AUTO 05007KT 020V080 1200 0600 R22/1400U R04///// BR BCFG VV002 09/08 Q1023
  • 130300Z AUTO 04010KT 1200 0300 R22/0700D R04///// BR BCFG VV002 09/09 Q1023
  • 130230Z AUTO 05009KT 0450 0250 R22/1100D R04///// FG VV002 09/09 Q1023

TAF TAF LEBG
Valide du 13 à 03h jusqu'au 13 à 12h UTC


130200Z 1303/1312 06011KT 9999 SCT015 BKN045
TEMPO 1303/1311 2000 BR BKN004
PROB40
TEMPO 1303/1310 0100 FG VV001
BECMG 1310/1312 CAVOK
Pas de NOTAMs connus pour ce terrain.
1 SIGMET publié pour la FIR Madrid (LECM) :
 
Turbulence forte
LECM SIGMET 1 VALID 130300/130600 LEVA
LECM MADRID UIR SEV TURB FCST WI N41 W00652 - N4417 W00408 - N4351 W00241 - N3709 W00721 - N4058 W00653 - N41 W00652 FL270/330 STNR WKN=



MET'MAP, la Météo Aéronautique d'un coup d'oeil ! - Copyright ORBIFLY Décembre 2007 - Disclaimer

ORBIFLY MET'MAP TEAM :

Programmation & Développement : Alexandra Zaïnal
Conception & Développement : Baudouin d'Aumeries
Co-Programmation & Développement : Marc-Olivier Méhu
Soutien technique & logistique : Manuel Goepfert

Contact : metmap@orbifly.com




SOURCES & CREDITS :

   NOAA